sensor_id;sensor_type;location;lat;lon;timestamp;P1;durP1;ratioP1;P2;durP2;ratioP2
77152;SDS011;66124;51.146;17.072;2023-02-03T00:07:07;6.20;;;3.30;;
77152;SDS011;66124;51.146;17.072;2023-02-03T00:09:39;9.80;;;3.50;;
77152;SDS011;66124;51.146;17.072;2023-02-03T00:12:08;6.10;;;3.40;;
77152;SDS011;66124;51.146;17.072;2023-02-03T00:14:38;8.70;;;3.60;;
77152;SDS011;66124;51.146;17.072;2023-02-03T00:17:08;4.70;;;2.30;;
77152;SDS011;66124;51.146;17.072;2023-02-03T00:19:37;9.00;;;3.60;;
77152;SDS011;66124;51.146;17.072;2023-02-03T00:29:55;8.40;;;4.20;;
77152;SDS011;66124;51.146;17.072;2023-02-03T00:32:25;7.70;;;3.60;;
77152;SDS011;66124;51.146;17.072;2023-02-03T00:34:54;7.30;;;3.70;;
77152;SDS011;66124;51.146;17.072;2023-02-03T00:37:23;7.90;;;3.80;;
77152;SDS011;66124;51.146;17.072;2023-02-03T00:39:53;8.20;;;4.00;;
77152;SDS011;66124;51.146;17.072;2023-02-03T00:42:22;7.60;;;4.10;;
77152;SDS011;66124;51.146;17.072;2023-02-03T00:44:51;9.40;;;3.90;;
77152;SDS011;66124;51.146;17.072;2023-02-03T00:47:21;10.30;;;4.50;;
77152;SDS011;66124;51.146;17.072;2023-02-03T00:49:50;9.10;;;4.10;;
77152;SDS011;66124;51.146;17.072;2023-02-03T00:52:20;8.80;;;4.20;;
77152;SDS011;66124;51.146;17.072;2023-02-03T00:54:49;7.80;;;4.50;;
77152;SDS011;66124;51.146;17.072;2023-02-03T00:57:18;8.00;;;5.70;;
77152;SDS011;66124;51.146;17.072;2023-02-03T00:59:48;9.90;;;5.10;;
77152;SDS011;66124;51.146;17.072;2023-02-03T01:02:17;9.70;;;4.40;;
77152;SDS011;66124;51.146;17.072;2023-02-03T01:04:47;12.80;;;4.70;;
77152;SDS011;66124;51.146;17.072;2023-02-03T01:07:16;11.00;;;5.30;;
77152;SDS011;66124;51.146;17.072;2023-02-03T01:09:45;9.90;;;4.60;;
77152;SDS011;66124;51.146;17.072;2023-02-03T01:12:15;10.40;;;4.80;;
77152;SDS011;66124;51.146;17.072;2023-02-03T01:14:44;9.10;;;5.30;;
77152;SDS011;66124;51.146;17.072;2023-02-03T01:17:14;6.90;;;4.00;;
77152;SDS011;66124;51.146;17.072;2023-02-03T01:19:43;9.90;;;4.80;;
77152;SDS011;66124;51.146;17.072;2023-02-03T01:22:12;12.40;;;5.10;;
77152;SDS011;66124;51.146;17.072;2023-02-03T01:24:42;10.70;;;4.70;;
77152;SDS011;66124;51.146;17.072;2023-02-03T01:27:11;8.90;;;4.40;;
77152;SDS011;66124;51.146;17.072;2023-02-03T01:29:40;9.00;;;4.30;;
77152;SDS011;66124;51.146;17.072;2023-02-03T01:32:10;10.40;;;4.50;;
77152;SDS011;66124;51.146;17.072;2023-02-03T01:34:39;10.20;;;4.50;;
77152;SDS011;66124;51.146;17.072;2023-02-03T01:37:08;9.80;;;4.50;;
77152;SDS011;66124;51.146;17.072;2023-02-03T01:52:53;10.40;;;4.50;;
77152;SDS011;66124;51.146;17.072;2023-02-03T01:55:29;9.60;;;5.00;;
77152;SDS011;66124;51.146;17.072;2023-02-03T01:58:02;11.80;;;4.80;;
77152;SDS011;66124;51.146;17.072;2023-02-03T02:00:36;8.40;;;4.40;;
77152;SDS011;66124;51.146;17.072;2023-02-03T02:03:06;10.90;;;5.10;;
77152;SDS011;66124;51.146;17.072;2023-02-03T02:05:37;9.20;;;5.10;;
77152;SDS011;66124;51.146;17.072;2023-02-03T02:08:13;11.40;;;5.20;;
77152;SDS011;66124;51.146;17.072;2023-02-03T02:10:44;10.50;;;5.20;;
77152;SDS011;66124;51.146;17.072;2023-02-03T02:13:14;9.30;;;4.30;;
77152;SDS011;66124;51.146;17.072;2023-02-03T02:15:48;10.30;;;4.70;;
77152;SDS011;66124;51.146;17.072;2023-02-03T02:18:30;9.90;;;5.00;;
77152;SDS011;66124;51.146;17.072;2023-02-03T02:24:44;10.10;;;5.00;;
77152;SDS011;66124;51.146;17.072;2023-02-03T02:27:49;10.10;;;4.60;;
77152;SDS011;66124;51.146;17.072;2023-02-03T02:33:39;9.40;;;4.80;;
77152;SDS011;66124;51.146;17.072;2023-02-03T02:36:17;11.50;;;5.10;;
77152;SDS011;66124;51.146;17.072;2023-02-03T02:38:56;11.00;;;4.80;;
77152;SDS011;66124;51.146;17.072;2023-02-03T02:41:29;10.80;;;5.00;;
77152;SDS011;66124;51.146;17.072;2023-02-03T02:44:08;12.00;;;4.90;;
77152;SDS011;66124;51.146;17.072;2023-02-03T02:46:43;9.50;;;4.70;;
77152;SDS011;66124;51.146;17.072;2023-02-03T02:49:18;11.30;;;4.10;;
77152;SDS011;66124;51.146;17.072;2023-02-03T02:51:51;8.90;;;4.50;;
77152;SDS011;66124;51.146;17.072;2023-02-03T02:54:25;9.20;;;4.70;;
77152;SDS011;66124;51.146;17.072;2023-02-03T02:56:59;7.90;;;4.30;;
77152;SDS011;66124;51.146;17.072;2023-02-03T02:59:31;9.80;;;5.10;;
77152;SDS011;66124;51.146;17.072;2023-02-03T03:02:01;7.50;;;4.30;;
77152;SDS011;66124;51.146;17.072;2023-02-03T03:13:35;8.30;;;4.30;;
77152;SDS011;66124;51.146;17.072;2023-02-03T03:16:08;10.00;;;4.60;;
77152;SDS011;66124;51.146;17.072;2023-02-03T03:18:42;7.70;;;4.10;;
77152;SDS011;66124;51.146;17.072;2023-02-03T03:21:15;8.60;;;4.30;;
77152;SDS011;66124;51.146;17.072;2023-02-03T03:23:49;7.90;;;4.00;;
77152;SDS011;66124;51.146;17.072;2023-02-03T03:26:23;10.50;;;5.10;;
77152;SDS011;66124;51.146;17.072;2023-02-03T03:29:02;8.00;;;4.60;;
77152;SDS011;66124;51.146;17.072;2023-02-03T03:31:38;8.30;;;3.60;;
77152;SDS011;66124;51.146;17.072;2023-02-03T03:34:08;9.60;;;4.10;;
77152;SDS011;66124;51.146;17.072;2023-02-03T03:36:41;9.10;;;4.20;;
77152;SDS011;66124;51.146;17.072;2023-02-03T03:39:14;9.70;;;4.10;;
77152;SDS011;66124;51.146;17.072;2023-02-03T03:41:53;10.80;;;5.00;;
77152;SDS011;66124;51.146;17.072;2023-02-03T03:44:29;10.00;;;4.10;;
77152;SDS011;66124;51.146;17.072;2023-02-03T03:47:08;7.80;;;3.70;;
77152;SDS011;66124;51.146;17.072;2023-02-03T03:49:45;11.20;;;5.00;;
77152;SDS011;66124;51.146;17.072;2023-02-03T03:52:19;8.10;;;4.20;;
77152;SDS011;66124;51.146;17.072;2023-02-03T03:54:54;6.60;;;4.30;;
77152;SDS011;66124;51.146;17.072;2023-02-03T03:57:29;9.30;;;4.20;;
77152;SDS011;66124;51.146;17.072;2023-02-03T04:00:04;7.20;;;4.00;;
77152;SDS011;66124;51.146;17.072;2023-02-03T04:02:42;9.80;;;4.20;;
77152;SDS011;66124;51.146;17.072;2023-02-03T04:05:15;8.50;;;4.40;;
77152;SDS011;66124;51.146;17.072;2023-02-03T04:07:45;8.50;;;3.90;;
77152;SDS011;66124;51.146;17.072;2023-02-03T04:10:17;6.90;;;3.50;;
77152;SDS011;66124;51.146;17.072;2023-02-03T04:12:52;7.40;;;4.40;;
77152;SDS011;66124;51.146;17.072;2023-02-03T04:15:21;8.40;;;3.90;;
77152;SDS011;66124;51.146;17.072;2023-02-03T04:17:51;7.70;;;3.40;;
77152;SDS011;66124;51.146;17.072;2023-02-03T04:20:21;8.80;;;3.90;;
77152;SDS011;66124;51.146;17.072;2023-02-03T04:22:51;7.80;;;3.90;;
77152;SDS011;66124;51.146;17.072;2023-02-03T04:32:32;9.30;;;3.50;;
77152;SDS011;66124;51.146;17.072;2023-02-03T04:35:01;8.80;;;3.10;;
77152;SDS011;66124;51.146;17.072;2023-02-03T04:37:32;7.10;;;3.50;;
77152;SDS011;66124;51.146;17.072;2023-02-03T04:40:01;7.70;;;3.30;;
77152;SDS011;66124;51.146;17.072;2023-02-03T04:42:32;8.00;;;3.10;;
77152;SDS011;66124;51.146;17.072;2023-02-03T04:45:03;7.50;;;3.30;;
77152;SDS011;66124;51.146;17.072;2023-02-03T04:47:34;6.40;;;2.50;;
77152;SDS011;66124;51.146;17.072;2023-02-03T04:50:05;7.30;;;3.10;;
77152;SDS011;66124;51.146;17.072;2023-02-03T04:52:35;6.10;;;3.10;;
77152;SDS011;66124;51.146;17.072;2023-02-03T04:55:05;7.60;;;3.80;;
77152;SDS011;66124;51.146;17.072;2023-02-03T04:57:35;8.90;;;3.60;;
77152;SDS011;66124;51.146;17.072;2023-02-03T05:00:06;6.20;;;3.00;;
77152;SDS011;66124;51.146;17.072;2023-02-03T05:02:37;6.60;;;3.40;;
77152;SDS011;66124;51.146;17.072;2023-02-03T05:05:07;7.20;;;3.30;;
77152;SDS011;66124;51.146;17.072;2023-02-03T05:07:36;5.40;;;3.10;;
77152;SDS011;66124;51.146;17.072;2023-02-03T05:10:06;5.00;;;2.40;;
77152;SDS011;66124;51.146;17.072;2023-02-03T05:12:36;4.50;;;2.70;;
77152;SDS011;66124;51.146;17.072;2023-02-03T05:15:06;8.40;;;2.70;;
77152;SDS011;66124;51.146;17.072;2023-02-03T05:17:36;5.00;;;2.40;;
77152;SDS011;66124;51.146;17.072;2023-02-03T05:20:07;5.50;;;2.90;;
77152;SDS011;66124;51.146;17.072;2023-02-03T05:22:37;7.50;;;3.00;;
77152;SDS011;66124;51.146;17.072;2023-02-03T05:25:08;6.70;;;3.00;;
77152;SDS011;66124;51.146;17.072;2023-02-03T05:27:38;5.90;;;3.00;;
77152;SDS011;66124;51.146;17.072;2023-02-03T05:30:09;7.90;;;3.10;;
77152;SDS011;66124;51.146;17.072;2023-02-03T05:32:39;6.20;;;3.40;;
77152;SDS011;66124;51.146;17.072;2023-02-03T05:35:09;5.60;;;3.10;;
77152;SDS011;66124;51.146;17.072;2023-02-03T05:37:38;7.00;;;2.80;;
77152;SDS011;66124;51.146;17.072;2023-02-03T05:40:10;4.00;;;2.60;;
77152;SDS011;66124;51.146;17.072;2023-02-03T05:42:41;5.30;;;2.50;;
77152;SDS011;66124;51.146;17.072;2023-02-03T05:55:14;5.70;;;2.80;;
77152;SDS011;66124;51.146;17.072;2023-02-03T05:57:44;6.90;;;3.40;;
77152;SDS011;66124;51.146;17.072;2023-02-03T06:00:14;4.70;;;2.40;;
77152;SDS011;66124;51.146;17.072;2023-02-03T06:02:44;5.70;;;2.90;;
77152;SDS011;66124;51.146;17.072;2023-02-03T06:05:17;7.00;;;3.50;;
77152;SDS011;66124;51.146;17.072;2023-02-03T06:07:47;5.50;;;2.90;;
77152;SDS011;66124;51.146;17.072;2023-02-03T06:10:16;7.50;;;3.10;;
77152;SDS011;66124;51.146;17.072;2023-02-03T06:12:46;8.40;;;3.40;;
77152;SDS011;66124;51.146;17.072;2023-02-03T06:15:16;6.60;;;3.40;;
77152;SDS011;66124;51.146;17.072;2023-02-03T06:17:46;7.30;;;3.40;;
77152;SDS011;66124;51.146;17.072;2023-02-03T06:20:17;9.00;;;3.70;;
77152;SDS011;66124;51.146;17.072;2023-02-03T06:22:47;6.80;;;3.60;;
77152;SDS011;66124;51.146;17.072;2023-02-03T06:25:16;7.50;;;3.10;;
77152;SDS011;66124;51.146;17.072;2023-02-03T06:27:46;8.30;;;3.80;;
77152;SDS011;66124;51.146;17.072;2023-02-03T06:30:15;8.70;;;3.80;;
77152;SDS011;66124;51.146;17.072;2023-02-03T06:32:45;10.00;;;4.10;;
77152;SDS011;66124;51.146;17.072;2023-02-03T06:35:16;8.20;;;3.50;;
77152;SDS011;66124;51.146;17.072;2023-02-03T06:37:45;9.90;;;4.00;;
77152;SDS011;66124;51.146;17.072;2023-02-03T06:40:15;8.20;;;3.60;;
77152;SDS011;66124;51.146;17.072;2023-02-03T06:42:45;6.60;;;3.00;;
77152;SDS011;66124;51.146;17.072;2023-02-03T06:45:15;5.80;;;3.10;;
77152;SDS011;66124;51.146;17.072;2023-02-03T06:47:44;5.70;;;3.30;;
77152;SDS011;66124;51.146;17.072;2023-02-03T06:50:14;6.50;;;3.10;;
77152;SDS011;66124;51.146;17.072;2023-02-03T06:52:44;6.80;;;3.40;;
77152;SDS011;66124;51.146;17.072;2023-02-03T06:55:15;7.40;;;3.70;;
77152;SDS011;66124;51.146;17.072;2023-02-03T06:57:45;5.60;;;3.50;;
77152;SDS011;66124;51.146;17.072;2023-02-03T07:00:16;7.50;;;3.40;;
77152;SDS011;66124;51.146;17.072;2023-02-03T07:05:19;6.10;;;2.70;;
77152;SDS011;66124;51.146;17.072;2023-02-03T07:12:44;7.40;;;2.80;;
77152;SDS011;66124;51.146;17.072;2023-02-03T07:15:13;4.30;;;2.50;;
77152;SDS011;66124;51.146;17.072;2023-02-03T07:17:43;9.40;;;4.10;;
77152;SDS011;66124;51.146;17.072;2023-02-03T07:20:13;5.70;;;3.10;;
77152;SDS011;66124;51.146;17.072;2023-02-03T07:22:43;6.40;;;3.10;;
77152;SDS011;66124;51.146;17.072;2023-02-03T07:25:17;6.00;;;2.20;;
77152;SDS011;66124;51.146;17.072;2023-02-03T07:27:47;5.80;;;2.70;;
77152;SDS011;66124;51.146;17.072;2023-02-03T07:30:16;4.80;;;2.00;;
77152;SDS011;66124;51.146;17.072;2023-02-03T07:32:47;3.30;;;1.70;;
77152;SDS011;66124;51.146;17.072;2023-02-03T07:35:17;4.90;;;2.60;;
77152;SDS011;66124;51.146;17.072;2023-02-03T07:37:47;4.50;;;2.40;;
77152;SDS011;66124;51.146;17.072;2023-02-03T07:40:16;4.80;;;2.10;;
77152;SDS011;66124;51.146;17.072;2023-02-03T07:42:47;4.50;;;2.30;;
77152;SDS011;66124;51.146;17.072;2023-02-03T07:45:17;2.90;;;1.90;;
77152;SDS011;66124;51.146;17.072;2023-02-03T07:47:47;6.50;;;2.90;;
77152;SDS011;66124;51.146;17.072;2023-02-03T07:50:16;4.60;;;2.50;;
77152;SDS011;66124;51.146;17.072;2023-02-03T07:52:46;4.30;;;2.10;;
77152;SDS011;66124;51.146;17.072;2023-02-03T07:55:16;4.10;;;1.90;;
77152;SDS011;66124;51.146;17.072;2023-02-03T07:57:46;3.70;;;1.20;;
77152;SDS011;66124;51.146;17.072;2023-02-03T08:00:16;2.80;;;1.50;;
77152;SDS011;66124;51.146;17.072;2023-02-03T08:02:47;2.10;;;1.10;;
77152;SDS011;66124;51.146;17.072;2023-02-03T08:05:16;3.60;;;1.80;;
77152;SDS011;66124;51.146;17.072;2023-02-03T08:07:46;2.60;;;1.60;;
77152;SDS011;66124;51.146;17.072;2023-02-03T08:10:16;3.90;;;2.00;;
77152;SDS011;66124;51.146;17.072;2023-02-03T08:12:45;4.50;;;2.10;;
77152;SDS011;66124;51.146;17.072;2023-02-03T08:15:15;3.20;;;1.90;;
77152;SDS011;66124;51.146;17.072;2023-02-03T08:17:44;3.40;;;2.20;;
77152;SDS011;66124;51.146;17.072;2023-02-03T08:20:15;4.20;;;2.30;;
77152;SDS011;66124;51.146;17.072;2023-02-03T08:32:52;4.70;;;2.40;;
77152;SDS011;66124;51.146;17.072;2023-02-03T08:35:22;4.50;;;2.50;;
77152;SDS011;66124;51.146;17.072;2023-02-03T08:37:51;4.00;;;1.50;;
77152;SDS011;66124;51.146;17.072;2023-02-03T08:40:21;3.40;;;2.30;;
77152;SDS011;66124;51.146;17.072;2023-02-03T08:42:50;3.90;;;2.10;;
77152;SDS011;66124;51.146;17.072;2023-02-03T08:45:21;4.30;;;2.10;;
77152;SDS011;66124;51.146;17.072;2023-02-03T08:47:50;4.90;;;2.40;;
77152;SDS011;66124;51.146;17.072;2023-02-03T08:50:19;5.90;;;2.60;;
77152;SDS011;66124;51.146;17.072;2023-02-03T08:52:49;4.10;;;2.70;;
77152;SDS011;66124;51.146;17.072;2023-02-03T08:55:18;4.90;;;3.20;;
77152;SDS011;66124;51.146;17.072;2023-02-03T08:57:47;5.70;;;2.90;;
77152;SDS011;66124;51.146;17.072;2023-02-03T09:00:17;3.80;;;2.30;;
77152;SDS011;66124;51.146;17.072;2023-02-03T09:02:48;4.40;;;2.60;;
77152;SDS011;66124;51.146;17.072;2023-02-03T09:05:17;4.30;;;2.10;;
77152;SDS011;66124;51.146;17.072;2023-02-03T09:07:47;4.60;;;2.00;;
77152;SDS011;66124;51.146;17.072;2023-02-03T09:10:16;3.80;;;2.10;;
77152;SDS011;66124;51.146;17.072;2023-02-03T09:12:46;4.00;;;2.90;;
77152;SDS011;66124;51.146;17.072;2023-02-03T09:15:15;4.00;;;2.20;;
77152;SDS011;66124;51.146;17.072;2023-02-03T09:17:44;4.40;;;2.00;;
77152;SDS011;66124;51.146;17.072;2023-02-03T09:20:14;4.90;;;2.40;;
77152;SDS011;66124;51.146;17.072;2023-02-03T09:22:43;4.50;;;2.50;;
77152;SDS011;66124;51.146;17.072;2023-02-03T09:25:13;5.00;;;2.90;;
77152;SDS011;66124;51.146;17.072;2023-02-03T09:27:42;5.30;;;3.00;;
77152;SDS011;66124;51.146;17.072;2023-02-03T09:30:12;4.80;;;2.70;;
77152;SDS011;66124;51.146;17.072;2023-02-03T09:32:42;4.30;;;2.90;;
77152;SDS011;66124;51.146;17.072;2023-02-03T09:35:11;5.40;;;2.60;;
77152;SDS011;66124;51.146;17.072;2023-02-03T09:37:41;4.60;;;2.50;;
77152;SDS011;66124;51.146;17.072;2023-02-03T09:53:19;6.50;;;3.10;;
77152;SDS011;66124;51.146;17.072;2023-02-03T09:55:53;7.60;;;3.50;;
77152;SDS011;66124;51.146;17.072;2023-02-03T09:58:32;8.70;;;4.50;;
77152;SDS011;66124;51.146;17.072;2023-02-03T10:01:02;7.90;;;4.00;;
77152;SDS011;66124;51.146;17.072;2023-02-03T10:03:38;4.10;;;2.90;;
77152;SDS011;66124;51.146;17.072;2023-02-03T10:06:18;5.90;;;3.00;;
77152;SDS011;66124;51.146;17.072;2023-02-03T10:09:02;7.20;;;4.10;;
77152;SDS011;66124;51.146;17.072;2023-02-03T10:12:03;10.20;;;4.90;;
77152;SDS011;66124;51.146;17.072;2023-02-03T10:14:57;7.20;;;4.50;;
77152;SDS011;66124;51.146;17.072;2023-02-03T10:17:42;9.50;;;4.60;;
77152;SDS011;66124;51.146;17.072;2023-02-03T10:22:50;6.90;;;4.10;;
77152;SDS011;66124;51.146;17.072;2023-02-03T10:25:24;6.90;;;3.90;;
77152;SDS011;66124;51.146;17.072;2023-02-03T10:28:03;5.70;;;3.30;;
77152;SDS011;66124;51.146;17.072;2023-02-03T10:30:42;6.30;;;2.70;;
77152;SDS011;66124;51.146;17.072;2023-02-03T10:33:15;4.40;;;2.60;;
77152;SDS011;66124;51.146;17.072;2023-02-03T10:35:48;6.30;;;3.30;;
77152;SDS011;66124;51.146;17.072;2023-02-03T10:38:20;8.50;;;4.70;;
77152;SDS011;66124;51.146;17.072;2023-02-03T10:41:01;7.50;;;4.00;;
77152;SDS011;66124;51.146;17.072;2023-02-03T10:43:31;6.80;;;4.20;;
77152;SDS011;66124;51.146;17.072;2023-02-03T10:46:01;12.60;;;6.20;;
77152;SDS011;66124;51.146;17.072;2023-02-03T10:48:30;6.60;;;4.20;;
77152;SDS011;66124;51.146;17.072;2023-02-03T10:51:00;6.60;;;4.00;;
77152;SDS011;66124;51.146;17.072;2023-02-03T10:53:32;6.50;;;4.00;;
77152;SDS011;66124;51.146;17.072;2023-02-03T10:56:03;6.90;;;4.00;;
77152;SDS011;66124;51.146;17.072;2023-02-03T10:58:36;8.30;;;4.60;;
77152;SDS011;66124;51.146;17.072;2023-02-03T11:01:13;5.60;;;3.30;;
77152;SDS011;66124;51.146;17.072;2023-02-03T11:03:52;3.90;;;1.70;;
77152;SDS011;66124;51.146;17.072;2023-02-03T11:12:33;4.80;;;2.90;;
77152;SDS011;66124;51.146;17.072;2023-02-03T11:15:04;7.20;;;3.10;;
77152;SDS011;66124;51.146;17.072;2023-02-03T11:17:42;8.50;;;3.90;;
77152;SDS011;66124;51.146;17.072;2023-02-03T11:20:13;6.20;;;3.70;;
77152;SDS011;66124;51.146;17.072;2023-02-03T11:22:43;7.00;;;3.70;;
77152;SDS011;66124;51.146;17.072;2023-02-03T11:25:18;5.20;;;3.00;;
77152;SDS011;66124;51.146;17.072;2023-02-03T11:27:51;4.20;;;2.70;;
77152;SDS011;66124;51.146;17.072;2023-02-03T11:30:23;6.40;;;3.10;;
77152;SDS011;66124;51.146;17.072;2023-02-03T11:32:55;5.90;;;2.60;;
77152;SDS011;66124;51.146;17.072;2023-02-03T11:37:56;5.40;;;3.60;;
77152;SDS011;66124;51.146;17.072;2023-02-03T11:40:27;6.70;;;3.20;;
77152;SDS011;66124;51.146;17.072;2023-02-03T11:43:08;5.10;;;2.30;;
77152;SDS011;66124;51.146;17.072;2023-02-03T11:45:44;6.00;;;3.50;;
77152;SDS011;66124;51.146;17.072;2023-02-03T11:48:19;6.70;;;3.80;;
77152;SDS011;66124;51.146;17.072;2023-02-03T11:50:57;3.90;;;2.10;;
77152;SDS011;66124;51.146;17.072;2023-02-03T11:53:34;7.00;;;3.10;;
77152;SDS011;66124;51.146;17.072;2023-02-03T11:56:16;4.20;;;2.20;;
77152;SDS011;66124;51.146;17.072;2023-02-03T12:02:08;4.30;;;2.00;;
77152;SDS011;66124;51.146;17.072;2023-02-03T12:07:46;4.00;;;1.60;;
77152;SDS011;66124;51.146;17.072;2023-02-03T12:10:27;2.90;;;1.50;;
77152;SDS011;66124;51.146;17.072;2023-02-03T12:13:09;2.20;;;1.40;;
77152;SDS011;66124;51.146;17.072;2023-02-03T12:15:58;2.60;;;1.40;;
77152;SDS011;66124;51.146;17.072;2023-02-03T12:18:42;1.10;;;0.90;;
77152;SDS011;66124;51.146;17.072;2023-02-03T12:32:26;1.90;;;1.20;;
77152;SDS011;66124;51.146;17.072;2023-02-03T12:35:03;1.60;;;0.80;;
77152;SDS011;66124;51.146;17.072;2023-02-03T12:37:42;2.10;;;1.10;;
77152;SDS011;66124;51.146;17.072;2023-02-03T12:40:18;1.30;;;0.80;;
77152;SDS011;66124;51.146;17.072;2023-02-03T12:42:56;1.80;;;1.00;;
77152;SDS011;66124;51.146;17.072;2023-02-03T12:45:31;1.70;;;1.10;;
77152;SDS011;66124;51.146;17.072;2023-02-03T12:48:05;1.70;;;0.80;;
77152;SDS011;66124;51.146;17.072;2023-02-03T12:50:41;1.70;;;0.70;;
77152;SDS011;66124;51.146;17.072;2023-02-03T12:53:13;1.40;;;1.30;;
77152;SDS011;66124;51.146;17.072;2023-02-03T12:55:49;1.30;;;1.10;;
77152;SDS011;66124;51.146;17.072;2023-02-03T12:58:23;1.90;;;0.70;;
77152;SDS011;66124;51.146;17.072;2023-02-03T13:00:56;2.40;;;0.80;;
77152;SDS011;66124;51.146;17.072;2023-02-03T13:03:32;1.30;;;0.90;;
77152;SDS011;66124;51.146;17.072;2023-02-03T13:06:11;1.50;;;1.00;;
77152;SDS011;66124;51.146;17.072;2023-02-03T13:08:49;2.30;;;0.80;;
77152;SDS011;66124;51.146;17.072;2023-02-03T13:11:23;1.50;;;0.90;;
77152;SDS011;66124;51.146;17.072;2023-02-03T13:13:59;2.40;;;1.20;;
77152;SDS011;66124;51.146;17.072;2023-02-03T13:16:35;2.20;;;1.20;;
77152;SDS011;66124;51.146;17.072;2023-02-03T13:19:09;3.00;;;1.30;;
77152;SDS011;66124;51.146;17.072;2023-02-03T13:21:41;1.60;;;1.00;;
77152;SDS011;66124;51.146;17.072;2023-02-03T13:24:11;1.80;;;1.00;;
77152;SDS011;66124;51.146;17.072;2023-02-03T13:26:50;1.70;;;1.10;;
77152;SDS011;66124;51.146;17.072;2023-02-03T13:29:37;1.10;;;0.90;;
77152;SDS011;66124;51.146;17.072;2023-02-03T13:32:21;2.10;;;1.00;;
77152;SDS011;66124;51.146;17.072;2023-02-03T13:35:11;1.70;;;1.00;;
77152;SDS011;66124;51.146;17.072;2023-02-03T13:37:58;2.60;;;1.30;;
77152;SDS011;66124;51.146;17.072;2023-02-03T13:40:44;3.00;;;0.90;;
77152;SDS011;66124;51.146;17.072;2023-02-03T13:48:38;1.70;;;0.70;;
77152;SDS011;66124;51.146;17.072;2023-02-03T13:51:13;1.90;;;0.70;;
77152;SDS011;66124;51.146;17.072;2023-02-03T13:53:47;1.40;;;0.80;;
77152;SDS011;66124;51.146;17.072;2023-02-03T13:56:18;2.10;;;0.70;;
77152;SDS011;66124;51.146;17.072;2023-02-03T13:59:01;1.20;;;0.70;;
77152;SDS011;66124;51.146;17.072;2023-02-03T14:01:32;1.90;;;0.80;;
77152;SDS011;66124;51.146;17.072;2023-02-03T14:04:03;1.00;;;0.50;;
77152;SDS011;66124;51.146;17.072;2023-02-03T14:09:40;1.60;;;0.80;;
77152;SDS011;66124;51.146;17.072;2023-02-03T14:15:15;1.20;;;0.80;;
77152;SDS011;66124;51.146;17.072;2023-02-03T14:17:58;1.00;;;0.70;;
77152;SDS011;66124;51.146;17.072;2023-02-03T14:20:35;1.00;;;0.50;;
77152;SDS011;66124;51.146;17.072;2023-02-03T14:23:11;1.60;;;0.70;;
77152;SDS011;66124;51.146;17.072;2023-02-03T14:25:46;2.60;;;0.70;;
77152;SDS011;66124;51.146;17.072;2023-02-03T14:31:04;2.40;;;0.60;;
77152;SDS011;66124;51.146;17.072;2023-02-03T14:33:45;1.70;;;0.60;;
77152;SDS011;66124;51.146;17.072;2023-02-03T14:36:30;1.30;;;1.00;;
77152;SDS011;66124;51.146;17.072;2023-02-03T14:39:03;1.80;;;0.90;;
77152;SDS011;66124;51.146;17.072;2023-02-03T14:41:53;2.00;;;1.00;;
77152;SDS011;66124;51.146;17.072;2023-02-03T14:44:32;2.70;;;1.00;;
77152;SDS011;66124;51.146;17.072;2023-02-03T14:47:12;2.30;;;0.70;;
77152;SDS011;66124;51.146;17.072;2023-02-03T14:49:55;3.20;;;0.70;;
77152;SDS011;66124;51.146;17.072;2023-02-03T14:52:40;1.90;;;0.80;;
77152;SDS011;66124;51.146;17.072;2023-02-03T14:55:25;4.20;;;0.90;;
77152;SDS011;66124;51.146;17.072;2023-02-03T14:58:05;6.30;;;1.60;;
77152;SDS011;66124;51.146;17.072;2023-02-03T15:08:32;5.20;;;1.10;;
77152;SDS011;66124;51.146;17.072;2023-02-03T15:11:18;6.10;;;1.20;;
77152;SDS011;66124;51.146;17.072;2023-02-03T15:14:13;2.80;;;0.90;;
77152;SDS011;66124;51.146;17.072;2023-02-03T15:16:49;5.30;;;1.50;;
77152;SDS011;66124;51.146;17.072;2023-02-03T15:19:23;4.20;;;1.00;;
77152;SDS011;66124;51.146;17.072;2023-02-03T15:21:55;7.70;;;1.40;;
77152;SDS011;66124;51.146;17.072;2023-02-03T15:24:25;5.70;;;1.00;;
77152;SDS011;66124;51.146;17.072;2023-02-03T15:27:02;5.70;;;1.70;;
77152;SDS011;66124;51.146;17.072;2023-02-03T15:29:32;7.10;;;1.90;;
77152;SDS011;66124;51.146;17.072;2023-02-03T15:32:03;6.20;;;1.30;;
77152;SDS011;66124;51.146;17.072;2023-02-03T15:34:40;5.60;;;1.40;;
77152;SDS011;66124;51.146;17.072;2023-02-03T15:37:13;6.60;;;1.10;;
77152;SDS011;66124;51.146;17.072;2023-02-03T15:39:59;6.10;;;0.90;;
77152;SDS011;66124;51.146;17.072;2023-02-03T15:42:34;5.00;;;1.10;;
77152;SDS011;66124;51.146;17.072;2023-02-03T15:45:20;5.50;;;1.00;;
77152;SDS011;66124;51.146;17.072;2023-02-03T15:47:55;4.80;;;0.80;;
77152;SDS011;66124;51.146;17.072;2023-02-03T15:50:28;7.00;;;1.70;;
77152;SDS011;66124;51.146;17.072;2023-02-03T15:53:01;7.20;;;1.30;;
77152;SDS011;66124;51.146;17.072;2023-02-03T15:55:35;5.80;;;1.40;;
77152;SDS011;66124;51.146;17.072;2023-02-03T15:58:12;3.90;;;1.10;;
77152;SDS011;66124;51.146;17.072;2023-02-03T16:00:47;5.50;;;1.60;;
77152;SDS011;66124;51.146;17.072;2023-02-03T16:03:19;7.90;;;1.70;;
77152;SDS011;66124;51.146;17.072;2023-02-03T16:05:55;5.20;;;1.70;;
77152;SDS011;66124;51.146;17.072;2023-02-03T16:08:32;7.80;;;1.90;;
77152;SDS011;66124;51.146;17.072;2023-02-03T16:11:21;8.90;;;1.80;;
77152;SDS011;66124;51.146;17.072;2023-02-03T16:13:53;5.80;;;1.10;;
77152;SDS011;66124;51.146;17.072;2023-02-03T16:16:24;6.60;;;1.40;;
77152;SDS011;66124;51.146;17.072;2023-02-03T16:18:56;5.50;;;1.40;;
77152;SDS011;66124;51.146;17.072;2023-02-03T16:28:55;4.80;;;1.40;;
77152;SDS011;66124;51.146;17.072;2023-02-03T16:31:40;8.90;;;1.40;;
77152;SDS011;66124;51.146;17.072;2023-02-03T16:34:13;3.60;;;0.70;;
77152;SDS011;66124;51.146;17.072;2023-02-03T16:36:44;5.30;;;1.20;;
77152;SDS011;66124;51.146;17.072;2023-02-03T16:39:13;6.20;;;1.10;;
77152;SDS011;66124;51.146;17.072;2023-02-03T16:41:42;3.10;;;0.90;;
77152;SDS011;66124;51.146;17.072;2023-02-03T16:44:12;3.20;;;0.90;;
77152;SDS011;66124;51.146;17.072;2023-02-03T16:46:41;3.20;;;0.80;;
77152;SDS011;66124;51.146;17.072;2023-02-03T16:49:11;6.00;;;1.10;;
77152;SDS011;66124;51.146;17.072;2023-02-03T16:51:42;4.40;;;0.90;;
77152;SDS011;66124;51.146;17.072;2023-02-03T16:54:12;3.20;;;0.90;;
77152;SDS011;66124;51.146;17.072;2023-02-03T16:56:43;5.20;;;1.40;;
77152;SDS011;66124;51.146;17.072;2023-02-03T16:59:12;3.90;;;1.10;;
77152;SDS011;66124;51.146;17.072;2023-02-03T17:01:41;5.80;;;1.50;;
77152;SDS011;66124;51.146;17.072;2023-02-03T17:04:11;8.20;;;1.50;;
77152;SDS011;66124;51.146;17.072;2023-02-03T17:06:40;7.10;;;1.40;;
77152;SDS011;66124;51.146;17.072;2023-02-03T17:09:09;6.20;;;2.00;;
77152;SDS011;66124;51.146;17.072;2023-02-03T17:11:39;8.20;;;1.60;;
77152;SDS011;66124;51.146;17.072;2023-02-03T17:14:08;6.30;;;1.70;;
77152;SDS011;66124;51.146;17.072;2023-02-03T17:16:37;10.90;;;1.60;;
77152;SDS011;66124;51.146;17.072;2023-02-03T17:19:10;8.80;;;1.20;;
77152;SDS011;66124;51.146;17.072;2023-02-03T17:24:07;6.30;;;1.60;;
77152;SDS011;66124;51.146;17.072;2023-02-03T17:26:37;8.00;;;1.70;;
77152;SDS011;66124;51.146;17.072;2023-02-03T17:29:08;7.20;;;1.50;;
77152;SDS011;66124;51.146;17.072;2023-02-03T17:31:37;9.20;;;2.30;;
77152;SDS011;66124;51.146;17.072;2023-02-03T17:34:07;6.90;;;1.90;;
77152;SDS011;66124;51.146;17.072;2023-02-03T17:36:36;3.80;;;1.20;;
77152;SDS011;66124;51.146;17.072;2023-02-03T17:39:05;6.30;;;1.50;;